ADDS METAR Data INFO
IDs: Format: Raw Decoded Include TAF

Data at: 0444 UTC 24 Apr 2018

METAR for:KIAH (Houston/Bush Intl, TX, US)
Text:KIAH 240353Z 00000KT 10SM FEW250 18/13 A3003 RMK AO2 SLP169 T01780128
Temperature: 17.8°C ( 64°F)
Dewpoint: 12.8°C ( 55°F) [RH = 73%]
Pressure (altimeter):30.03 inches Hg (1017.0 mb) [Sea level pressure: 1016.9 mb]
Winds:calm
Visibility:10 or more sm (16+ km)
Ceiling:at least 12,000 feet AGL
Clouds: few clouds at 25000 feet AGL

METAR for:KHOU (Houston/Hobby Arpt, TX, US)
Text:KHOU 240353Z 00000KT 10SM CLR 18/13 A3003 RMK AO2 SLP173 T01780128
Temperature: 17.8°C ( 64°F)
Dewpoint: 12.8°C ( 55°F) [RH = 73%]
Pressure (altimeter):30.03 inches Hg (1017.0 mb) [Sea level pressure: 1017.3 mb]
Winds:calm
Visibility:10 or more sm (16+ km)
Ceiling:at least 12,000 feet AGL
Clouds:sky clear below 12,000 feet AGL

METAR for:KGLS (Galveston/Scholes In, TX, US)
Text:KGLS 240352Z AUTO 22004KT 10SM CLR 20/17 A3004 RMK AO2 SLP172 T02000167
Temperature: 20.0°C ( 68°F)
Dewpoint: 16.7°C ( 62°F) [RH = 81%]
Pressure (altimeter):30.04 inches Hg (1017.4 mb) [Sea level pressure: 1017.2 mb]
Winds:from the SW (220 degrees) at 5 MPH (4 knots; 2.1 m/s)
Visibility:10 or more sm (16+ km)
Ceiling:at least 12,000 feet AGL
Clouds:sky clear below 12,000 feet AGL
QC Flag:automated observation with no human augmentation

METAR for:KLVJ (Houston/Pearland Rgn, TX, US)
Text:KLVJ 240353Z AUTO 00000KT 10SM CLR 17/13 A3004 RMK AO2 SLP173 T01720128
Temperature: 17.2°C ( 63°F)
Dewpoint: 12.8°C ( 55°F) [RH = 75%]
Pressure (altimeter):30.04 inches Hg (1017.4 mb) [Sea level pressure: 1017.3 mb]
Winds:calm
Visibility:10 or more sm (16+ km)
Ceiling:at least 12,000 feet AGL
Clouds:sky clear below 12,000 feet AGL
QC Flag:automated observation with no human augmentation

METAR for:KSGR (Houston/Sugar Land R, TX, US)
Text:KSGR 240353Z AUTO 00000KT 10SM CLR 17/14 A3003 RMK AO2 SLP169 T01670139
Temperature: 16.7°C ( 62°F)
Dewpoint: 13.9°C ( 57°F) [RH = 84%]
Pressure (altimeter):30.03 inches Hg (1017.0 mb) [Sea level pressure: 1016.9 mb]
Winds:calm
Visibility:10 or more sm (16+ km)
Ceiling:at least 12,000 feet AGL
Clouds:sky clear below 12,000 feet AGL
QC Flag:automated observation with no human augmentation

METAR for:KDWH (Houston/Hooks Mem, TX, US)
Text:KDWH 240353Z AUTO 00000KT 9SM CLR 17/14 A3003 RMK AO2 SLP168 T01670139
Temperature: 16.7°C ( 62°F)
Dewpoint: 13.9°C ( 57°F) [RH = 84%]
Pressure (altimeter):30.03 inches Hg (1017.0 mb) [Sea level pressure: 1016.8 mb]
Winds:calm
Visibility: 9 sm ( 14 km)
Ceiling:at least 12,000 feet AGL
Clouds:sky clear below 12,000 feet AGL
QC Flag:automated observation with no human augmentation

METAR for:KCLL (College Station/East, TX, US)
Text:KCLL 240353Z 00000KT 10SM CLR 17/12 A3003 RMK AO2 SLP167 T01720122
Temperature: 17.2°C ( 63°F)
Dewpoint: 12.2°C ( 54°F) [RH = 72%]
Pressure (altimeter):30.03 inches Hg (1017.0 mb) [Sea level pressure: 1016.7 mb]
Winds:calm
Visibility:10 or more sm (16+ km)
Ceiling:at least 12,000 feet AGL
Clouds:sky clear below 12,000 feet AGL

METAR for:KUTS (Huntsville Muni, TX, US)
Text:KUTS 240353Z AUTO 00000KT 10SM CLR 15/13 A3005 RMK AO2 SLP172 T01500128
Temperature: 15.0°C ( 59°F)
Dewpoint: 12.8°C ( 55°F) [RH = 87%]
Pressure (altimeter):30.05 inches Hg (1017.7 mb) [Sea level pressure: 1017.2 mb]
Winds:calm
Visibility:10 or more sm (16+ km)
Ceiling:at least 12,000 feet AGL
Clouds:sky clear below 12,000 feet AGL
QC Flag:automated observation with no human augmentation

METAR for:KCXO (Conroe/Executive Arp, TX, US)
Text:KCXO 240353Z AUTO 00000KT 10SM CLR 13/13 A3004 RMK AO2 SLP170 T01330133
Temperature: 13.3°C ( 56°F)
Dewpoint: 13.3°C ( 56°F) [RH = 100%]
Pressure (altimeter):30.04 inches Hg (1017.4 mb) [Sea level pressure: 1017.0 mb]
Winds:calm
Visibility:10 or more sm (16+ km)
Ceiling:at least 12,000 feet AGL
Clouds:sky clear below 12,000 feet AGL
QC Flag:automated observation with no human augmentation

METAR for:KLBX (Angleton/Texas Gulf, TX, US)
Text:KLBX 240353Z AUTO 00000KT 10SM CLR 17/15 A3004 RMK AO2 SLP172 T01720150
Temperature: 17.2°C ( 63°F)
Dewpoint: 15.0°C ( 59°F) [RH = 87%]
Pressure (altimeter):30.04 inches Hg (1017.4 mb) [Sea level pressure: 1017.2 mb]
Winds:calm
Visibility:10 or more sm (16+ km)
Ceiling:at least 12,000 feet AGL
Clouds:sky clear below 12,000 feet AGL
QC Flag:automated observation with no human augmentation

METAR for:KPSX (Palacios Muni, TX, US)
Text:KPSX 240353Z AUTO 23005KT 10SM CLR 21/17 A3004 RMK AO2 SLP172 T02060172
Temperature: 20.6°C ( 69°F)
Dewpoint: 17.2°C ( 63°F) [RH = 81%]
Pressure (altimeter):30.04 inches Hg (1017.4 mb) [Sea level pressure: 1017.2 mb]
Winds:from the SW (230 degrees) at 6 MPH (5 knots; 2.6 m/s)
Visibility:10 or more sm (16+ km)
Ceiling:at least 12,000 feet AGL
Clouds:sky clear below 12,000 feet AGL
QC Flag:automated observation with no human augmentation